createdAt,value
2022-09-20T00:01:15.707Z,100971.96
2022-09-20T00:03:29.182Z,100976.34
2022-09-20T00:05:44.988Z,100981.19
2022-09-20T00:07:58.242Z,100981.44
2022-09-20T00:10:13.149Z,100981.11
2022-09-20T00:12:26.565Z,100982.90
2022-09-20T00:14:39.904Z,100981.15
2022-09-20T00:16:53.465Z,100983.48
2022-09-20T00:19:08.388Z,100985.59
2022-09-20T00:21:24.629Z,100985.17
2022-09-20T00:23:38.627Z,100989.48
2022-09-20T00:25:58.217Z,100993.84
2022-09-20T00:28:12.930Z,100994.83
2022-09-20T00:30:26.129Z,100993.74
2022-09-20T00:32:39.824Z,100994.59
2022-09-20T00:35:12.036Z,100999.52
2022-09-20T00:37:25.431Z,101000.21
2022-09-20T00:39:38.621Z,101003.47
2022-09-20T00:41:51.998Z,101002.16
2022-09-20T00:44:05.830Z,101001.30
2022-09-20T00:46:28.037Z,101002.48
2022-09-20T00:48:41.278Z,101007.74
2022-09-20T00:51:00.066Z,101010.48
2022-09-20T00:53:17.417Z,101009.89
2022-09-20T00:55:32.219Z,101007.90
2022-09-20T00:57:46.411Z,101012.05
2022-09-20T01:00:00.518Z,101016.59
2022-09-20T01:02:19.938Z,101017.99
2022-09-20T01:04:34.339Z,101022.29
2022-09-20T01:06:49.650Z,101022.88
2022-09-20T01:09:06.696Z,101024.52
2022-09-20T01:11:19.933Z,101026.06
2022-09-20T01:13:33.218Z,101027.46
2022-09-20T01:15:48.037Z,101027.17
2022-09-20T01:18:03.531Z,101028.55
2022-09-20T01:20:21.604Z,101033.05
2022-09-20T01:22:44.703Z,101035.62
2022-09-20T01:25:08.666Z,101040.94
2022-09-20T01:27:29.212Z,101041.59
2022-09-20T01:30:07.617Z,101042.86
2022-09-20T01:32:28.604Z,101050.08
2022-09-20T01:34:48.218Z,101051.45
2022-09-20T01:37:08.665Z,101056.09
2022-09-20T01:39:29.017Z,101059.05
2022-09-20T01:41:48.111Z,101058.41
2022-09-20T01:44:05.081Z,101061.96
2022-09-20T01:46:32.312Z,101063.59
2022-09-20T01:48:46.364Z,101067.81
2022-09-20T01:51:27.983Z,101069.59
2022-09-20T01:54:03.556Z,101075.00
2022-09-20T01:56:41.746Z,101078.81
2022-09-20T01:59:30.722Z,101083.05
2022-09-20T02:02:12.393Z,101088.33
2022-09-20T02:04:47.120Z,101089.42
2022-09-20T02:07:20.804Z,101087.42
2022-09-20T02:10:17.148Z,101094.76
2022-09-20T02:12:45.732Z,101095.80
2022-09-20T02:15:11.212Z,101103.42
2022-09-20T02:17:29.523Z,101103.98
2022-09-20T02:20:03.380Z,101104.96
2022-09-20T02:22:31.231Z,101107.54
2022-09-20T02:24:50.201Z,101111.21
2022-09-20T02:27:20.374Z,101113.80
2022-09-20T02:29:43.440Z,101121.69
2022-09-20T02:32:17.584Z,101127.95
2022-09-20T02:34:50.113Z,101131.05
2022-09-20T02:37:20.823Z,101137.34
2022-09-20T02:39:40.731Z,101145.14
2022-09-20T02:42:15.138Z,101149.41
2022-09-20T02:44:42.874Z,101152.58
2022-09-20T02:47:05.639Z,101157.12
2022-09-20T02:49:28.099Z,101159.86
2022-09-20T02:51:48.336Z,101163.83
2022-09-20T02:54:16.121Z,101166.58
2022-09-20T02:56:38.388Z,101168.94
2022-09-20T02:58:59.679Z,101171.10
2022-09-20T03:01:28.969Z,101176.80
2022-09-20T03:03:49.616Z,101177.23
2022-09-20T03:06:10.221Z,101182.13
2022-09-20T03:08:35.845Z,101180.20
2022-09-20T03:11:00.843Z,101183.94
2022-09-20T03:13:30.626Z,101185.40
2022-09-20T03:15:55.081Z,101188.83
2022-09-20T03:18:14.854Z,101193.94
2022-09-20T03:20:39.936Z,101196.52
2022-09-20T03:23:02.521Z,101196.58
2022-09-20T03:25:29.796Z,101197.23
2022-09-20T03:27:53.683Z,101197.38
2022-09-20T03:30:31.622Z,101199.73
2022-09-20T03:32:59.900Z,101196.16
2022-09-20T03:35:26.416Z,101195.80
2022-09-20T03:37:55.633Z,101195.73
2022-09-20T03:40:32.431Z,101194.84
2022-09-20T03:42:52.305Z,101196.40
2022-09-20T03:45:33.027Z,101199.50
2022-09-20T03:48:04.684Z,101202.02
2022-09-20T03:50:48.863Z,101203.59
2022-09-20T03:53:35.723Z,101209.89
2022-09-20T03:56:16.346Z,101207.43
2022-09-20T03:58:47.553Z,101207.52
2022-09-20T04:01:19.883Z,101205.24
2022-09-20T04:03:40.760Z,101202.86
2022-09-20T04:06:04.901Z,101202.69
2022-09-20T04:08:27.738Z,101209.14
2022-09-20T04:10:54.715Z,101213.05
2022-09-20T04:13:29.144Z,101210.30
2022-09-20T04:15:53.983Z,101213.11
2022-09-20T04:18:12.891Z,101213.44
2022-09-20T04:20:33.557Z,101212.20
2022-09-20T04:22:50.360Z,101213.31
2022-09-20T04:25:09.394Z,101216.17
2022-09-20T04:27:29.037Z,101218.61
2022-09-20T04:29:49.592Z,101222.94
2022-09-20T04:32:13.532Z,101226.93
2022-09-20T04:34:51.798Z,101229.52
2022-09-20T04:37:24.118Z,101229.72
2022-09-20T04:39:49.443Z,101234.62
2022-09-20T04:42:44.068Z,101236.34
2022-09-20T04:45:34.465Z,101241.16
2022-09-20T04:48:19.071Z,101238.20
2022-09-20T04:50:56.279Z,101241.29
2022-09-20T04:53:38.092Z,101238.44
2022-09-20T04:55:58.231Z,101238.39
2022-09-20T04:58:37.446Z,101239.92
2022-09-20T05:01:12.632Z,101245.18
2022-09-20T05:04:11.858Z,101238.86
2022-09-20T05:06:53.650Z,101241.16
2022-09-20T05:09:31.588Z,101241.18
2022-09-20T05:12:05.112Z,101238.30
2022-09-20T05:14:52.157Z,101233.11
2022-09-20T05:17:24.197Z,101230.34
2022-09-20T05:19:49.590Z,101227.89
2022-09-20T05:22:28.656Z,101225.17
2022-09-20T05:25:22.359Z,101224.63
2022-09-20T05:27:50.166Z,101219.84
2022-09-20T05:30:14.759Z,101227.07
2022-09-20T05:32:34.674Z,101232.11
2022-09-20T05:34:55.717Z,101229.27
2022-09-20T05:37:20.660Z,101232.56
2022-09-20T05:39:42.470Z,101231.45
2022-09-20T05:42:02.937Z,101232.55
2022-09-20T05:44:28.606Z,101233.67
2022-09-20T05:46:49.640Z,101238.90
2022-09-20T05:49:14.148Z,101239.81
2022-09-20T05:51:40.278Z,101242.42
2022-09-20T05:54:09.819Z,101244.57
2022-09-20T05:56:33.089Z,101240.05
2022-09-20T05:59:05.942Z,101232.21
2022-09-20T06:01:25.446Z,101230.64
2022-09-20T06:03:44.737Z,101227.21
2022-09-20T06:06:06.157Z,101220.40
2022-09-20T06:08:42.117Z,101220.09
2022-09-20T06:11:09.341Z,101222.27
2022-09-20T06:13:38.160Z,101226.28
2022-09-20T06:15:58.655Z,101227.30
2022-09-20T06:18:24.317Z,101223.27
2022-09-20T06:20:45.779Z,101220.39
2022-09-20T06:23:03.193Z,101214.67
2022-09-20T06:25:25.282Z,101216.13
2022-09-20T06:27:43.055Z,101213.34
2022-09-20T06:30:01.926Z,101213.62
2022-09-20T06:32:19.619Z,101215.80
2022-09-20T06:34:34.350Z,101218.16
2022-09-20T06:37:10.818Z,101216.68
2022-09-20T06:39:52.135Z,101220.06
2022-09-20T06:42:05.866Z,101216.31
2022-09-20T06:44:19.075Z,101212.73
2022-09-20T06:46:34.246Z,101212.16
2022-09-20T06:48:47.319Z,101208.85
2022-09-20T06:51:02.281Z,101209.95
2022-09-20T06:53:19.655Z,101210.39
2022-09-20T06:55:42.200Z,101211.27
2022-09-20T06:57:55.426Z,101212.84
2022-09-20T07:00:12.427Z,101213.22
2022-09-20T07:02:25.743Z,101212.08
2022-09-20T07:04:38.987Z,101213.79
2022-09-20T07:06:52.285Z,101212.34
2022-09-20T07:09:05.565Z,101212.48
2022-09-20T07:11:20.118Z,101208.73
2022-09-20T07:13:33.615Z,101207.29
2022-09-20T07:15:46.818Z,101209.75
2022-09-20T07:18:00.837Z,101207.66
2022-09-20T07:20:17.439Z,101206.14
2022-09-20T07:22:34.955Z,101201.33
2022-09-20T07:24:49.487Z,101199.92
2022-09-20T07:27:04.371Z,101193.09
2022-09-20T07:29:17.649Z,101196.79
2022-09-20T07:31:32.914Z,101194.13
2022-09-20T07:33:46.628Z,101193.50
2022-09-20T07:36:00.206Z,101189.06
2022-09-20T07:38:13.466Z,101190.92
2022-09-20T07:40:26.969Z,101193.20
2022-09-20T07:42:40.120Z,101200.16
2022-09-20T07:44:53.855Z,101194.67
2022-09-20T07:47:07.504Z,101190.42
2022-09-20T07:49:20.615Z,101191.66
2022-09-20T07:51:34.076Z,101196.83
2022-09-20T07:53:47.568Z,101195.33
2022-09-20T07:56:09.409Z,101198.02
2022-09-20T07:58:22.686Z,101195.66
2022-09-20T08:00:35.921Z,101198.28
2022-09-20T08:02:49.354Z,101196.91
2022-09-20T08:05:02.622Z,101197.21
2022-09-20T08:09:45.456Z,101200.55
2022-09-20T08:11:59.009Z,101193.78
2022-09-20T08:14:16.102Z,101194.19
2022-09-20T08:16:29.745Z,101189.14
2022-09-20T08:18:43.519Z,101189.08
2022-09-20T08:20:56.671Z,101183.46
2022-09-20T08:23:23.420Z,101182.81
2022-09-20T08:25:37.428Z,101183.40
2022-09-20T08:27:55.397Z,101181.05
2022-09-20T08:30:09.690Z,101181.88
2022-09-20T08:32:22.812Z,101179.65
2022-09-20T08:34:36.111Z,101179.73
2022-09-20T08:36:53.066Z,101176.98
2022-09-20T08:41:42.946Z,101171.86
2022-09-20T08:44:00.592Z,101172.66
2022-09-20T08:46:23.156Z,101179.73
2022-09-20T08:48:38.722Z,101183.27
2022-09-20T08:50:52.205Z,101186.13
2022-09-20T08:53:07.265Z,101190.85
2022-09-20T08:55:24.111Z,101194.39
2022-09-20T08:57:38.582Z,101192.61
2022-09-20T08:59:51.988Z,101189.65
2022-09-20T09:02:05.407Z,101185.29
2022-09-20T09:04:21.040Z,101183.52
2022-09-20T09:06:34.444Z,101186.23
2022-09-20T09:08:52.396Z,101186.43
2022-09-20T09:11:10.661Z,101188.30
2022-09-20T09:13:28.702Z,101186.24
2022-09-20T09:15:44.867Z,101186.73
2022-09-20T09:17:59.547Z,101185.01
2022-09-20T09:20:23.712Z,101179.44
2022-09-20T09:22:46.427Z,101167.70
2022-09-20T09:25:13.402Z,101161.27
2022-09-20T09:27:26.696Z,101158.61
2022-09-20T09:29:51.841Z,101159.41
2022-09-20T09:32:24.424Z,101158.15
2022-09-20T09:34:40.218Z,101154.90
2022-09-20T09:36:53.457Z,101151.81
2022-09-20T09:39:20.036Z,101153.00
2022-09-20T09:41:36.562Z,101149.27
2022-09-20T09:44:00.771Z,101141.45
2022-09-20T09:46:28.225Z,101134.12
2022-09-20T09:48:41.498Z,101134.15
2022-09-20T09:51:10.002Z,101132.02
2022-09-20T09:53:26.225Z,101131.98
2022-09-20T09:55:57.065Z,101128.73
2022-09-20T09:58:23.916Z,101128.52
2022-09-20T10:00:44.247Z,101120.92
2022-09-20T10:03:19.678Z,101120.20
2022-09-20T10:05:40.377Z,101115.33
2022-09-20T10:08:00.970Z,101112.90
2022-09-20T10:10:26.138Z,101114.83
2022-09-20T10:12:59.341Z,101108.78
2022-09-20T10:15:28.096Z,101109.42
2022-09-20T10:17:54.446Z,101110.77
2022-09-20T10:20:26.564Z,101108.39
2022-09-20T10:23:07.083Z,101106.60
2022-09-20T10:25:37.252Z,101103.30
2022-09-20T10:28:02.953Z,101098.75
2022-09-20T10:30:19.211Z,101100.25
2022-09-20T10:32:47.689Z,101094.08
2022-09-20T10:35:17.465Z,101092.48
2022-09-20T10:37:41.210Z,101091.02
2022-09-20T10:40:02.760Z,101086.18
2022-09-20T10:42:48.121Z,101083.73
2022-09-20T10:45:29.026Z,101079.64
2022-09-20T10:47:54.304Z,101076.67
2022-09-20T10:50:17.079Z,101074.41
2022-09-20T10:52:38.505Z,101076.79
2022-09-20T10:55:07.767Z,101076.24
2022-09-20T10:57:46.420Z,101074.39
2022-09-20T11:00:08.533Z,101074.10
2022-09-20T11:02:49.488Z,101077.23
2022-09-20T11:05:22.294Z,101079.41
2022-09-20T11:07:47.906Z,101085.85
2022-09-20T11:10:06.877Z,101083.41
2022-09-20T11:12:27.462Z,101092.80
2022-09-20T11:14:44.803Z,101093.30
2022-09-20T11:17:02.771Z,101091.63
2022-09-20T11:19:27.862Z,101087.48
2022-09-20T11:21:47.515Z,101084.30
2022-09-20T11:24:05.764Z,101084.98
2022-09-20T11:26:26.706Z,101083.03
2022-09-20T11:28:44.260Z,101084.10
2022-09-20T11:31:05.654Z,101085.79
2022-09-20T11:33:25.303Z,101086.82
2022-09-20T11:35:42.795Z,101085.33
2022-09-20T11:38:02.259Z,101083.91
2022-09-20T11:40:23.623Z,101086.09
2022-09-20T11:42:39.899Z,101086.00
2022-09-20T11:44:54.074Z,101083.77
2022-09-20T11:47:10.878Z,101084.64
2022-09-20T11:49:28.151Z,101079.45
2022-09-20T11:52:18.633Z,101079.14
2022-09-20T11:55:08.582Z,101080.48
2022-09-20T11:57:22.345Z,101080.13
2022-09-20T11:59:43.409Z,101081.70
2022-09-20T12:02:02.900Z,101083.33
2022-09-20T12:04:33.561Z,101084.34
2022-09-20T12:06:48.462Z,101088.90
2022-09-20T12:09:03.129Z,101089.05
2022-09-20T12:11:18.262Z,101089.54
2022-09-20T12:13:33.195Z,101094.29
2022-09-20T12:15:46.676Z,101094.04
2022-09-20T12:18:34.464Z,101097.08
2022-09-20T12:21:16.969Z,101097.33
2022-09-20T12:24:13.816Z,101102.41
2022-09-20T12:26:42.258Z,101107.41
2022-09-20T12:28:57.095Z,101106.45
2022-09-20T12:31:50.871Z,101108.96
2022-09-20T12:34:05.820Z,101110.23
2022-09-20T12:36:23.829Z,101106.04
2022-09-20T12:38:49.894Z,101108.36
2022-09-20T12:41:12.657Z,101111.97
2022-09-20T12:43:28.211Z,101109.07
2022-09-20T12:45:41.855Z,101109.14
2022-09-20T12:48:00.020Z,101109.52
2022-09-20T12:50:36.036Z,101115.41
2022-09-20T12:53:05.374Z,101110.91
2022-09-20T12:55:31.148Z,101109.42
2022-09-20T12:57:46.304Z,101109.99
2022-09-20T13:00:05.107Z,101109.31
2022-09-20T13:03:00.453Z,101108.34
2022-09-20T13:05:39.504Z,101105.73
2022-09-20T13:08:03.178Z,101105.63
2022-09-20T13:10:36.127Z,101106.98
2022-09-20T13:12:47.495Z,101109.44
2022-09-20T13:15:03.120Z,101110.39
2022-09-20T13:17:28.531Z,101111.86
2022-09-20T13:19:46.051Z,101113.09
2022-09-20T13:22:06.138Z,101116.80
2022-09-20T13:24:23.794Z,101119.24
2022-09-20T13:26:45.275Z,101120.30
2022-09-20T13:29:01.528Z,101120.23
2022-09-20T13:31:35.071Z,101124.77
2022-09-20T13:33:48.357Z,101130.57
2022-09-20T13:36:02.447Z,101132.28
2022-09-20T13:38:16.552Z,101135.40
2022-09-20T13:40:35.185Z,101134.98
2022-09-20T13:42:48.977Z,101138.74
2022-09-20T13:45:04.610Z,101142.96
2022-09-20T13:47:32.434Z,101148.48
2022-09-20T13:49:49.347Z,101151.19
2022-09-20T13:52:02.579Z,101155.61
2022-09-20T13:54:35.853Z,101152.35
2022-09-20T13:56:49.433Z,101157.68
2022-09-20T13:59:07.880Z,101153.44
2022-09-20T14:01:31.699Z,101158.86
2022-09-20T14:03:47.999Z,101158.25
2022-09-20T14:06:03.112Z,101156.38
2022-09-20T14:08:23.833Z,101156.83
2022-09-20T14:10:42.331Z,101155.05
2022-09-20T14:12:56.416Z,101154.50
2022-09-20T14:15:13.533Z,101155.84
2022-09-20T14:17:28.350Z,101161.03
2022-09-20T14:19:47.411Z,101162.05
2022-09-20T14:22:02.184Z,101167.23
2022-09-20T14:24:33.056Z,101168.52
2022-09-20T14:26:47.287Z,101171.81
2022-09-20T14:29:20.693Z,101175.14
2022-09-20T14:31:38.221Z,101173.41
2022-09-20T14:33:55.411Z,101176.02
2022-09-20T14:36:13.906Z,101175.42
2022-09-20T14:38:30.225Z,101176.14
2022-09-20T14:40:51.095Z,101177.63
2022-09-20T14:43:05.833Z,101180.36
2022-09-20T14:45:28.609Z,101175.02
2022-09-20T14:47:42.853Z,101182.82
2022-09-20T14:49:56.248Z,101181.06
2022-09-20T14:52:45.419Z,101181.56
2022-09-20T14:55:14.682Z,101183.03
2022-09-20T14:57:30.196Z,101179.92
2022-09-20T14:59:48.084Z,101180.31
2022-09-20T15:02:08.305Z,101186.51
2022-09-20T15:04:26.664Z,101178.98
2022-09-20T15:06:42.134Z,101178.10
2022-09-20T15:08:55.634Z,101178.59
2022-09-20T15:11:09.047Z,101178.52
2022-09-20T15:13:22.477Z,101176.66
2022-09-20T15:15:36.449Z,101178.21
2022-09-20T15:17:50.357Z,101179.45
2022-09-20T15:20:04.327Z,101182.02
2022-09-20T15:22:17.807Z,101182.46
2022-09-20T15:24:30.960Z,101177.96
2022-09-20T15:26:44.152Z,101177.94
2022-09-20T15:28:57.315Z,101173.45
2022-09-20T15:31:10.970Z,101176.26
2022-09-20T15:33:25.354Z,101173.00
2022-09-20T15:35:38.886Z,101171.02
2022-09-20T15:37:52.118Z,101170.88
2022-09-20T15:40:05.908Z,101174.13
2022-09-20T15:42:20.396Z,101171.46
2022-09-20T15:44:33.923Z,101160.64
2022-09-20T15:46:47.803Z,101165.59
2022-09-20T15:49:02.407Z,101167.67
2022-09-20T15:51:16.884Z,101166.33
2022-09-20T15:53:30.050Z,101165.38
2022-09-20T15:55:45.747Z,101159.84
2022-09-20T15:57:58.900Z,101161.98
2022-09-20T16:00:13.598Z,101159.55
2022-09-20T16:02:26.921Z,101161.70
2022-09-20T16:04:40.573Z,101157.80
2022-09-20T16:06:55.020Z,101156.30
2022-09-20T16:09:09.823Z,101156.59
2022-09-20T16:11:25.165Z,101156.45
2022-09-20T16:13:40.046Z,101155.65
2022-09-20T16:16:00.131Z,101156.35
2022-09-20T16:18:30.491Z,101153.47
2022-09-20T16:20:44.021Z,101150.94
2022-09-20T16:22:57.163Z,101151.41
2022-09-20T16:25:11.504Z,101156.40
2022-09-20T16:27:24.750Z,101158.25
2022-09-20T16:29:38.856Z,101158.13
2022-09-20T16:31:52.935Z,101160.86
2022-09-20T16:34:07.609Z,101161.73
2022-09-20T16:36:25.456Z,101162.73
2022-09-20T16:38:41.421Z,101167.36
2022-09-20T16:40:56.881Z,101170.31
2022-09-20T16:43:10.542Z,101175.62
2022-09-20T16:45:24.340Z,101173.75
2022-09-20T16:47:42.163Z,101180.04
2022-09-20T16:49:56.400Z,101184.94
2022-09-20T16:52:10.457Z,101183.48
2022-09-20T16:54:25.631Z,101182.36
2022-09-20T16:56:42.529Z,101183.96
2022-09-20T16:58:57.201Z,101187.24
2022-09-20T17:01:13.570Z,101186.89
2022-09-20T17:03:28.510Z,101188.88
2022-09-20T17:05:43.519Z,101196.91
2022-09-20T17:07:59.855Z,101200.98
2022-09-20T17:10:14.408Z,101204.17
2022-09-20T17:12:30.187Z,101207.39
2022-09-20T17:14:43.353Z,101207.70
2022-09-20T17:16:57.707Z,101212.76
2022-09-20T17:19:14.119Z,101213.88
2022-09-20T17:21:28.257Z,101216.90
2022-09-20T17:23:42.391Z,101222.75
2022-09-20T17:26:04.767Z,101226.11
2022-09-20T17:28:18.320Z,101228.10
2022-09-20T17:30:32.402Z,101233.77
2022-09-20T17:32:47.500Z,101232.55
2022-09-20T17:35:01.953Z,101235.16
2022-09-20T17:37:15.455Z,101240.56
2022-09-20T17:39:28.650Z,101240.45
2022-09-20T17:41:42.240Z,101239.38
2022-09-20T17:43:59.360Z,101242.98
2022-09-20T17:46:15.808Z,101241.67
2022-09-20T17:48:29.499Z,101242.69
2022-09-20T17:50:43.062Z,101245.94
2022-09-20T17:52:56.342Z,101246.70
2022-09-20T17:55:11.400Z,101247.93
2022-09-20T17:57:25.038Z,101250.84
2022-09-20T17:59:38.223Z,101250.83
2022-09-20T18:01:52.691Z,101251.89
2022-09-20T18:04:08.099Z,101252.38
2022-09-20T18:06:25.265Z,101247.92
2022-09-20T18:08:39.233Z,101250.52
2022-09-20T18:11:02.138Z,101253.32
2022-09-20T18:13:15.824Z,101255.92
2022-09-20T18:15:29.003Z,101256.23
2022-09-20T18:17:42.302Z,101260.23
2022-09-20T18:19:55.849Z,101258.27
2022-09-20T18:22:09.602Z,101259.97
2022-09-20T18:24:22.920Z,101256.05
2022-09-20T18:26:36.899Z,101260.55
2022-09-20T18:28:50.256Z,101257.83
2022-09-20T18:31:11.401Z,101257.15
2022-09-20T18:33:24.964Z,101259.03
2022-09-20T18:35:43.921Z,101260.17
2022-09-20T18:37:57.285Z,101265.20
2022-09-20T18:40:11.969Z,101269.77
2022-09-20T18:42:25.220Z,101272.73
2022-09-20T18:44:38.439Z,101273.10
2022-09-20T18:46:54.571Z,101274.35
2022-09-20T18:49:09.930Z,101271.58
2022-09-20T18:51:23.497Z,101274.61
2022-09-20T18:53:38.641Z,101276.08
2022-09-20T18:55:53.200Z,101277.13
2022-09-20T18:58:06.744Z,101276.77
2022-09-20T19:00:22.474Z,101278.33
2022-09-20T19:02:53.250Z,101283.84
2022-09-20T19:05:19.113Z,101281.31
2022-09-20T19:07:45.620Z,101285.05
2022-09-20T19:10:06.656Z,101285.54
2022-09-20T19:12:29.507Z,101286.36
2022-09-20T19:14:57.691Z,101288.04
2022-09-20T19:17:12.141Z,101288.71
2022-09-20T19:19:38.878Z,101286.73
2022-09-20T19:22:13.533Z,101285.10
2022-09-20T19:24:41.609Z,101283.96
2022-09-20T19:26:55.472Z,101281.81
2022-09-20T19:29:13.754Z,101282.89
2022-09-20T19:31:33.411Z,101281.50
2022-09-20T19:33:49.690Z,101279.70
2022-09-20T19:36:05.305Z,101276.34
2022-09-20T19:38:27.374Z,101275.02
2022-09-20T19:40:51.183Z,101275.39
2022-09-20T19:43:17.292Z,101268.60
2022-09-20T19:45:39.559Z,101272.27
2022-09-20T19:48:02.126Z,101266.48
2022-09-20T19:50:18.372Z,101259.71
2022-09-20T19:52:32.871Z,101257.02
2022-09-20T19:54:47.687Z,101255.80
2022-09-20T19:57:04.347Z,101256.69
2022-09-20T19:59:19.080Z,101255.56
2022-09-20T20:01:34.193Z,101255.96
2022-09-20T20:03:48.362Z,101255.21
2022-09-20T20:06:08.384Z,101253.71
2022-09-20T20:08:27.367Z,101256.66
2022-09-20T20:10:51.014Z,101254.58
2022-09-20T20:13:32.968Z,101251.02
2022-09-20T20:15:54.747Z,101246.48
2022-09-20T20:18:16.650Z,101242.52
2022-09-20T20:20:40.655Z,101243.31
2022-09-20T20:23:27.796Z,101243.83
2022-09-20T20:25:51.367Z,101240.90
2022-09-20T20:28:04.557Z,101243.52
2022-09-20T20:30:18.633Z,101239.77
2022-09-20T20:32:31.870Z,101239.52
2022-09-20T20:34:45.282Z,101239.86
2022-09-20T20:37:02.002Z,101236.69
2022-09-20T20:39:15.267Z,101241.27
2022-09-20T20:41:28.779Z,101240.89
2022-09-20T20:43:43.573Z,101239.14
2022-09-20T20:45:58.291Z,101240.45
2022-09-20T20:48:11.645Z,101244.55
2022-09-20T20:50:26.387Z,101242.30
2022-09-20T20:52:40.492Z,101244.73
2022-09-20T20:54:54.106Z,101242.94
2022-09-20T20:57:07.460Z,101241.56
2022-09-20T20:59:20.737Z,101241.17
2022-09-20T21:01:35.737Z,101237.98
2022-09-20T21:03:50.127Z,101237.68
2022-09-20T21:06:04.049Z,101233.10
2022-09-20T21:08:17.250Z,101233.45
2022-09-20T21:10:30.472Z,101235.34
2022-09-20T21:12:43.573Z,101239.45
2022-09-20T21:14:56.663Z,101239.65
2022-09-20T21:17:09.979Z,101238.92
2022-09-20T21:19:24.228Z,101243.20
2022-09-20T21:21:39.654Z,101244.50
2022-09-20T21:23:54.701Z,101243.44
2022-09-20T21:26:12.028Z,101247.84
2022-09-20T21:28:25.144Z,101247.79
2022-09-20T21:30:38.844Z,101249.17
2022-09-20T21:32:52.353Z,101249.23
2022-09-20T21:35:05.596Z,101250.38
2022-09-20T21:37:18.910Z,101247.40
2022-09-20T21:39:32.590Z,101247.11
2022-09-20T21:41:46.814Z,101246.48
2022-09-20T21:44:01.651Z,101243.48
2022-09-20T21:46:18.937Z,101244.36
2022-09-20T21:48:32.629Z,101247.17
2022-09-20T21:50:46.178Z,101243.61
2022-09-20T21:52:59.492Z,101247.54
2022-09-20T21:55:14.036Z,101243.77
2022-09-20T21:57:28.111Z,101246.95
2022-09-20T21:59:41.785Z,101247.69
2022-09-20T22:01:57.678Z,101245.26
2022-09-20T22:04:13.821Z,101248.39
2022-09-20T22:06:28.770Z,101245.50
2022-09-20T22:08:42.730Z,101250.54
2022-09-20T22:11:04.812Z,101244.14
2022-09-20T22:13:18.003Z,101238.55
2022-09-20T22:15:31.362Z,101239.17
2022-09-20T22:17:44.675Z,101238.50
2022-09-20T22:19:57.935Z,101240.33
2022-09-20T22:22:11.238Z,101239.52
2022-09-20T22:24:24.457Z,101237.64
2022-09-20T22:26:39.105Z,101237.48
2022-09-20T22:28:53.005Z,101235.31
2022-09-20T22:31:14.961Z,101235.05
2022-09-20T22:33:28.190Z,101235.09
2022-09-20T22:35:47.022Z,101232.47
2022-09-20T22:38:02.412Z,101230.56
2022-09-20T22:40:16.426Z,101230.20
2022-09-20T22:42:29.866Z,101231.02
2022-09-20T22:44:43.274Z,101228.80
2022-09-20T22:46:56.421Z,101227.38
2022-09-20T22:49:10.965Z,101224.98
2022-09-20T22:51:25.781Z,101224.02
2022-09-20T22:53:39.478Z,101223.71
2022-09-20T22:55:52.649Z,101223.54
2022-09-20T22:58:05.926Z,101220.27
2022-09-20T23:00:20.401Z,101221.90
2022-09-20T23:02:33.638Z,101222.33
2022-09-20T23:04:46.925Z,101218.95
2022-09-20T23:07:00.520Z,101218.56
2022-09-20T23:09:14.943Z,101220.76
2022-09-20T23:11:28.584Z,101220.92
2022-09-20T23:13:42.109Z,101221.11
2022-09-20T23:15:55.420Z,101223.22
2022-09-20T23:18:08.638Z,101218.64
2022-09-20T23:20:21.948Z,101215.27
2022-09-20T23:22:35.062Z,101215.05
2022-09-20T23:24:48.262Z,101212.81
2022-09-20T23:27:02.087Z,101213.32
2022-09-20T23:29:17.479Z,101213.94
2022-09-20T23:31:31.639Z,101213.14
2022-09-20T23:33:50.217Z,101215.04
2022-09-20T23:36:04.811Z,101215.77
2022-09-20T23:38:18.204Z,101213.46
2022-09-20T23:40:31.493Z,101214.92
2022-09-20T23:42:44.740Z,101221.40
2022-09-20T23:44:57.920Z,101225.39
2022-09-20T23:47:11.260Z,101228.23
2022-09-20T23:49:24.882Z,101229.40
2022-09-20T23:51:38.495Z,101222.10
2022-09-20T23:53:51.925Z,101226.91
2022-09-20T23:56:05.722Z,101222.19
2022-09-20T23:58:19.249Z,101225.16
